KGXY/GXY METAR and TAF weather

Enter ICAO airport designator
Station Type Date Time Source
KGXY METAR 2024/05/28 22:56 UTC NOAA

KGXY 282256Z 14011G18KT 10SM CLR 28/04 A3013 RMK AO2 SLP176 T02830039


Station Type Date Time Source
KGXY Decoded METAR 2024/05/28 22:56 UTC NOAA

Greeley, Greeley-Weld County Airport, CO, United States (KGXY) 40-26N 104-38W
May 28, 2024 - 06:56 PM EDT / 2024.05.28 2256 UTC
Wind: from the SE (140 degrees) at 13 MPH (11 KT) gusting to 21 MPH (18 KT):0
Visibility: 10 mile(s):0
Sky conditions: clear
Temperature: 82.9 F (28.3 C)
Dew Point: 39.0 F (3.9 C)
Relative Humidity: 20%
Pressure (altimeter): 30.13 in. Hg (1020 hPa)
ob: KGXY 282256Z 14011G18KT 10SM CLR 28/04 A3013 RMK AO2 SLP176 T02830039
cycle: 23

Station Type Date Time Source
KGXY TAF UTC NOAA

Error!

Example: see airport list